createdAt,value
2019-02-27T00:04:34.850Z,54.61
2019-02-27T00:09:38.825Z,54.45
2019-02-27T00:14:44.011Z,54.39
2019-02-27T00:19:49.246Z,54.70
2019-02-27T00:24:54.428Z,54.72
2019-02-27T00:30:04.504Z,55.14
2019-02-27T00:35:08.963Z,55.80
2019-02-27T00:40:14.115Z,55.12
2019-02-27T00:45:19.284Z,54.42
2019-02-27T00:50:24.705Z,54.66
2019-02-27T00:55:30.623Z,54.55
2019-02-27T01:00:38.960Z,54.52
2019-02-27T01:05:43.841Z,55.01
2019-02-27T01:10:48.934Z,55.45
2019-02-27T01:15:54.992Z,56.24
2019-02-27T01:21:00.141Z,56.88
2019-02-27T01:26:05.297Z,57.40
2019-02-27T01:31:10.453Z,57.92
2019-02-27T01:36:15.568Z,58.72
2019-02-27T01:41:24.353Z,59.78
2019-02-27T01:46:28.476Z,59.58
2019-02-27T01:51:34.897Z,60.47
2019-02-27T01:56:39.975Z,60.59
2019-02-27T02:01:45.896Z,60.72
2019-02-27T02:06:51.040Z,60.63
2019-02-27T02:11:56.193Z,60.17
2019-02-27T02:17:11.809Z,60.04
2019-02-27T02:22:32.116Z,59.80
2019-02-27T02:28:04.192Z,59.73
2019-02-27T02:33:29.378Z,60.17
2019-02-27T02:39:19.171Z,60.00
2019-02-27T02:45:33.076Z,60.07
2019-02-27T02:51:05.072Z,60.22
2019-02-27T02:56:25.677Z,60.19
2019-02-27T03:01:49.392Z,59.95
2019-02-27T03:07:30.938Z,60.09
2019-02-27T03:13:14.935Z,59.76
2019-02-27T03:19:07.415Z,59.86
2019-02-27T03:24:45.719Z,61.05
2019-02-27T03:30:34.022Z,61.25
2019-02-27T03:36:15.300Z,61.06
2019-02-27T03:41:30.285Z,61.34
2019-02-27T03:47:08.099Z,61.39
2019-02-27T03:52:48.984Z,61.31
2019-02-27T03:58:19.864Z,61.23
2019-02-27T04:03:57.571Z,61.53
2019-02-27T04:09:03.327Z,61.69
2019-02-27T04:14:29.581Z,61.48
2019-02-27T04:19:39.218Z,60.94
2019-02-27T04:24:44.714Z,61.64
2019-02-27T04:29:49.869Z,60.87
2019-02-27T04:34:56.142Z,60.65
2019-02-27T04:40:01.296Z,60.46
2019-02-27T04:45:09.846Z,60.42
2019-02-27T04:50:15.810Z,60.61
2019-02-27T04:55:20.983Z,60.27
2019-02-27T05:00:26.845Z,60.10
2019-02-27T05:05:32.368Z,60.36
2019-02-27T05:10:38.245Z,61.38
2019-02-27T05:15:44.822Z,62.21
2019-02-27T05:20:50.433Z,63.83
2019-02-27T05:25:56.373Z,65.50
2019-02-27T05:31:01.588Z,66.79
2019-02-27T05:36:06.666Z,66.87
2019-02-27T05:41:12.090Z,67.64
2019-02-27T05:46:18.203Z,67.47
2019-02-27T05:51:23.720Z,69.07
2019-02-27T05:56:29.223Z,69.03
2019-02-27T06:01:38.273Z,68.36
2019-02-27T06:06:45.108Z,67.28
2019-02-27T06:11:50.116Z,65.77
2019-02-27T06:16:55.352Z,65.61
2019-02-27T06:22:00.517Z,65.07
2019-02-27T06:27:06.847Z,65.18
2019-02-27T06:32:13.016Z,65.01
2019-02-27T06:37:19.009Z,64.61
2019-02-27T06:42:24.205Z,64.40
2019-02-27T06:47:29.725Z,64.41
2019-02-27T06:52:34.815Z,64.00
2019-02-27T06:57:41.267Z,64.10
2019-02-27T07:02:47.539Z,65.14
2019-02-27T07:07:52.712Z,65.38
2019-02-27T07:12:58.736Z,65.52
2019-02-27T07:18:06.222Z,65.63
2019-02-27T07:23:11.142Z,65.77
2019-02-27T07:28:16.587Z,64.94
2019-02-27T07:33:21.758Z,64.37
2019-02-27T07:38:26.919Z,64.24
2019-02-27T07:43:32.075Z,63.24
2019-02-27T07:48:37.267Z,61.88
2019-02-27T07:53:42.853Z,61.26
2019-02-27T07:58:49.088Z,60.45
2019-02-27T08:03:54.243Z,59.55
2019-02-27T08:09:03.494Z,59.74
2019-02-27T08:14:13.012Z,59.09
2019-02-27T08:19:18.314Z,59.12
2019-02-27T08:24:24.898Z,57.78
2019-02-27T08:29:31.162Z,56.48
2019-02-27T08:34:36.737Z,54.85
2019-02-27T08:39:42.242Z,54.59
2019-02-27T08:44:48.598Z,53.66
2019-02-27T08:49:57.614Z,53.86
2019-02-27T08:55:05.452Z,53.05
2019-02-27T09:00:14.446Z,53.07
2019-02-27T09:05:20.043Z,50.88
2019-02-27T09:10:29.388Z,50.90
2019-02-27T09:15:33.114Z,50.55
2019-02-27T09:20:38.366Z,50.82
2019-02-27T09:25:43.601Z,50.80
2019-02-27T09:30:49.617Z,49.77
2019-02-27T09:35:54.859Z,50.13
2019-02-27T09:41:00.118Z,49.15
2019-02-27T09:46:05.498Z,49.24
2019-02-27T09:51:10.733Z,46.92
2019-02-27T09:56:17.045Z,46.35
2019-02-27T10:01:22.698Z,45.60
2019-02-27T10:06:28.593Z,45.74
2019-02-27T10:11:33.827Z,45.10
2019-02-27T10:16:39.064Z,43.90
2019-02-27T10:21:45.418Z,44.81
2019-02-27T10:26:53.532Z,45.58
2019-02-27T10:31:58.271Z,45.43
2019-02-27T10:37:05.047Z,43.73
2019-02-27T10:42:10.336Z,44.29
2019-02-27T10:47:15.965Z,43.06
2019-02-27T10:52:24.396Z,41.97
2019-02-27T10:57:31.742Z,41.71
2019-02-27T11:02:35.345Z,42.82
2019-02-27T11:07:40.607Z,41.50
2019-02-27T11:12:45.893Z,40.67
2019-02-27T11:17:51.970Z,40.20
2019-02-27T11:22:57.584Z,39.20
2019-02-27T11:28:02.848Z,39.10
2019-02-27T11:33:08.466Z,38.75
2019-02-27T11:38:13.819Z,39.01
2019-02-27T11:43:19.066Z,38.66
2019-02-27T11:48:24.332Z,37.85
2019-02-27T11:53:29.926Z,36.43
2019-02-27T11:58:38.232Z,36.77
2019-02-27T12:03:45.726Z,37.60
2019-02-27T12:08:49.391Z,37.46
2019-02-27T12:13:55.088Z,36.22
2019-02-27T12:19:00.330Z,35.48
2019-02-27T12:24:05.973Z,36.11
2019-02-27T12:29:11.684Z,35.62
2019-02-27T12:34:17.297Z,35.34
2019-02-27T12:39:22.546Z,35.03
2019-02-27T12:44:28.558Z,35.08
2019-02-27T12:49:33.834Z,35.30
2019-02-27T12:54:39.075Z,34.37
2019-02-27T12:59:44.312Z,34.94
2019-02-27T13:04:52.484Z,35.12
2019-02-27T13:09:58.774Z,35.28
2019-02-27T13:15:06.682Z,35.42
2019-02-27T13:20:16.853Z,33.80
2019-02-27T13:25:24.265Z,34.44
2019-02-27T13:30:29.157Z,34.16
2019-02-27T13:35:34.765Z,32.70
2019-02-27T13:40:40.327Z,31.98
2019-02-27T13:45:47.572Z,31.76
2019-02-27T13:50:52.553Z,30.98
2019-02-27T13:55:57.806Z,30.89
2019-02-27T14:01:03.064Z,31.66
2019-02-27T14:06:09.327Z,31.00
2019-02-27T14:11:14.837Z,30.18
2019-02-27T14:16:20.076Z,29.69
2019-02-27T14:21:25.349Z,29.89
2019-02-27T14:26:30.594Z,28.15
2019-02-27T14:31:36.169Z,28.89
2019-02-27T14:36:42.499Z,28.99
2019-02-27T14:41:49.266Z,27.68
2019-02-27T14:46:56.096Z,26.17
2019-02-27T14:52:01.728Z,26.55
2019-02-27T14:57:06.970Z,26.46
2019-02-27T15:02:12.214Z,26.17
2019-02-27T15:07:17.565Z,26.71
2019-02-27T15:12:22.935Z,26.87
2019-02-27T15:17:28.211Z,26.51
2019-02-27T15:22:33.699Z,27.36
2019-02-27T15:27:39.777Z,26.29
2019-02-27T15:32:45.013Z,26.87
2019-02-27T15:37:50.253Z,25.94
2019-02-27T15:42:55.494Z,25.94
2019-02-27T15:48:00.757Z,25.27
2019-02-27T15:53:07.217Z,25.75
2019-02-27T15:58:16.011Z,25.35
2019-02-27T16:03:22.836Z,25.72
2019-02-27T16:08:28.628Z,25.19
2019-02-27T16:13:34.697Z,24.87
2019-02-27T16:18:40.757Z,25.20
2019-02-27T16:23:47.479Z,25.25
2019-02-27T16:28:52.755Z,24.93
2019-02-27T16:33:58.545Z,26.21
2019-02-27T16:39:07.639Z,25.74
2019-02-27T16:44:14.602Z,25.37
2019-02-27T16:49:19.848Z,25.88
2019-02-27T16:54:27.266Z,26.71
2019-02-27T16:59:32.018Z,26.45
2019-02-27T17:04:37.260Z,27.09
2019-02-27T17:09:44.615Z,27.88
2019-02-27T17:14:50.247Z,28.27
2019-02-27T17:19:59.372Z,28.61
2019-02-27T17:25:05.051Z,29.61
2019-02-27T17:30:14.487Z,29.58
2019-02-27T17:35:20.514Z,30.91
2019-02-27T17:40:29.067Z,32.77
2019-02-27T17:45:34.456Z,33.24
2019-02-27T17:50:39.890Z,33.42
2019-02-27T17:55:45.181Z,33.45
2019-02-27T18:00:56.629Z,33.88
2019-02-27T18:06:02.268Z,33.07
2019-02-27T18:11:07.803Z,34.05
2019-02-27T18:16:13.346Z,35.20
2019-02-27T18:21:19.027Z,36.41
2019-02-27T18:26:24.609Z,37.26
2019-02-27T18:31:29.856Z,37.30
2019-02-27T18:36:42.572Z,37.38
2019-02-27T18:41:42.353Z,37.78
2019-02-27T18:46:47.974Z,38.34
2019-02-27T18:51:53.534Z,38.47
2019-02-27T18:56:59.092Z,38.62
2019-02-27T19:02:07.460Z,39.38
2019-02-27T19:07:13.003Z,40.02
2019-02-27T19:12:19.097Z,40.74
2019-02-27T19:17:29.029Z,40.99
2019-02-27T19:22:32.163Z,40.37
2019-02-27T19:27:37.706Z,40.42
2019-02-27T19:32:43.041Z,40.40
2019-02-27T19:37:48.784Z,40.05
2019-02-27T19:42:58.872Z,39.94
2019-02-27T19:48:04.373Z,39.38
2019-02-27T19:53:09.614Z,39.58
2019-02-27T19:58:18.187Z,40.17
2019-02-27T20:03:21.768Z,41.10
2019-02-27T20:08:27.333Z,41.24
2019-02-27T20:13:32.672Z,41.94
2019-02-27T20:18:40.608Z,42.43
2019-02-27T20:23:46.957Z,42.51
2019-02-27T20:28:52.591Z,42.46
2019-02-27T20:33:58.682Z,42.44
2019-02-27T20:39:05.698Z,42.60
2019-02-27T20:44:11.794Z,42.95
2019-02-27T20:49:17.419Z,43.17
2019-02-27T20:54:24.186Z,43.30
2019-02-27T20:59:29.449Z,43.70
2019-02-27T21:04:35.966Z,43.85
2019-02-27T21:09:42.257Z,44.08
2019-02-27T21:14:49.110Z,44.67
2019-02-27T21:19:55.137Z,45.30
2019-02-27T21:25:00.706Z,45.80
2019-02-27T21:30:11.172Z,45.85
2019-02-27T21:35:16.502Z,46.04
2019-02-27T21:40:22.143Z,46.13
2019-02-27T21:45:27.678Z,46.43
2019-02-27T21:50:33.109Z,47.37
2019-02-27T21:55:39.679Z,47.82
2019-02-27T22:00:48.020Z,48.13
2019-02-27T22:05:53.658Z,48.26
2019-02-27T22:10:59.136Z,49.26
2019-02-27T22:16:05.937Z,48.79
2019-02-27T22:21:11.461Z,48.51
2019-02-27T22:26:17.050Z,49.16
2019-02-27T22:31:22.444Z,49.22
2019-02-27T22:36:27.855Z,49.14
2019-02-27T22:41:33.374Z,48.83
2019-02-27T22:46:38.640Z,48.54
2019-02-27T22:51:45.202Z,49.13
2019-02-27T22:56:52.046Z,49.93
2019-02-27T23:01:57.868Z,50.13
2019-02-27T23:07:03.548Z,50.81
2019-02-27T23:12:09.326Z,50.37
2019-02-27T23:17:14.931Z,50.36
2019-02-27T23:22:20.189Z,50.36
2019-02-27T23:27:26.282Z,49.93
2019-02-27T23:32:32.452Z,49.33
2019-02-27T23:37:37.693Z,48.29
2019-02-27T23:42:43.613Z,47.93
2019-02-27T23:47:49.520Z,47.94
2019-02-27T23:52:54.752Z,47.56
2019-02-27T23:58:00.047Z,47.17
